createdAt,value
2022-09-20T00:01:22.313Z,2.42
2022-09-20T00:03:50.740Z,2.33
2022-09-20T00:06:19.422Z,2.45
2022-09-20T00:08:46.963Z,2.40
2022-09-20T00:11:15.635Z,2.50
2022-09-20T00:13:43.482Z,2.50
2022-09-20T00:16:12.124Z,3.22
2022-09-20T00:18:39.520Z,2.85
2022-09-20T00:21:07.228Z,2.67
2022-09-20T00:23:35.889Z,2.20
2022-09-20T00:26:03.421Z,2.50
2022-09-20T00:28:30.559Z,2.10
2022-09-20T00:30:57.691Z,2.22
2022-09-20T00:33:45.596Z,2.25
2022-09-20T00:36:16.119Z,2.25
2022-09-20T00:38:43.112Z,2.75
2022-09-20T00:41:10.281Z,2.13
2022-09-20T00:43:46.751Z,2.65
2022-09-20T00:46:32.378Z,2.53
2022-09-20T00:49:05.880Z,2.47
2022-09-20T00:51:35.486Z,2.30
2022-09-20T00:54:03.845Z,2.00
2022-09-20T00:56:32.814Z,1.95
2022-09-20T00:59:09.290Z,2.78
2022-09-20T01:01:37.224Z,2.15
2022-09-20T01:04:04.883Z,2.00
2022-09-20T01:06:33.327Z,2.78
2022-09-20T01:09:02.508Z,2.53
2022-09-20T01:11:30.838Z,2.45
2022-09-20T01:13:58.233Z,2.75
2022-09-20T01:16:26.776Z,2.20
2022-09-20T01:18:54.803Z,1.90
2022-09-20T01:21:22.238Z,2.00
2022-09-20T01:24:04.847Z,2.20
2022-09-20T01:26:43.887Z,1.90
2022-09-20T01:29:29.560Z,2.33
2022-09-20T01:31:58.701Z,1.80
2022-09-20T01:34:36.132Z,2.20
2022-09-20T01:37:07.061Z,1.88
2022-09-20T01:39:43.128Z,2.13
2022-09-20T01:42:11.488Z,2.00
2022-09-20T01:44:38.485Z,2.10
2022-09-20T01:47:14.445Z,1.70
2022-09-20T01:49:47.406Z,1.70
2022-09-20T01:52:33.063Z,2.00
2022-09-20T01:55:03.070Z,2.05
2022-09-20T01:57:42.044Z,2.17
2022-09-20T02:00:18.205Z,2.13
2022-09-20T02:02:45.331Z,2.40
2022-09-20T02:05:27.676Z,1.70
2022-09-20T02:08:17.797Z,2.13
2022-09-20T02:10:51.068Z,1.77
2022-09-20T02:13:27.170Z,2.10
2022-09-20T02:16:16.746Z,2.58
2022-09-20T02:18:51.978Z,1.90
2022-09-20T02:21:37.822Z,1.98
2022-09-20T02:24:25.065Z,1.90
2022-09-20T02:27:02.352Z,1.90
2022-09-20T02:29:57.206Z,2.25
2022-09-20T02:32:30.148Z,1.83
2022-09-20T02:35:09.148Z,1.98
2022-09-20T02:37:48.184Z,1.70
2022-09-20T02:40:18.292Z,1.63
2022-09-20T02:43:03.217Z,1.65
2022-09-20T02:45:40.029Z,2.42
2022-09-20T02:48:07.276Z,1.98
2022-09-20T02:50:49.989Z,1.77
2022-09-20T02:53:23.964Z,1.92
2022-09-20T02:55:58.560Z,2.00
2022-09-20T02:58:37.511Z,2.65
2022-09-20T03:01:23.281Z,2.53
2022-09-20T03:03:59.649Z,2.63
2022-09-20T03:06:41.796Z,2.10
2022-09-20T03:09:30.097Z,2.50
2022-09-20T03:12:08.654Z,2.45
2022-09-20T03:14:42.967Z,2.40
2022-09-20T03:17:16.187Z,2.42
2022-09-20T03:20:01.426Z,2.10
2022-09-20T03:22:34.220Z,2.47
2022-09-20T03:25:15.330Z,2.60
2022-09-20T03:28:00.976Z,2.30
2022-09-20T03:30:41.233Z,2.40
2022-09-20T03:33:08.322Z,2.83
2022-09-20T03:35:56.314Z,2.78
2022-09-20T03:38:35.618Z,2.50
2022-09-20T03:41:03.364Z,3.10
2022-09-20T03:43:30.361Z,3.05
2022-09-20T03:46:04.225Z,2.70
2022-09-20T03:48:43.536Z,2.95
2022-09-20T03:51:10.921Z,3.60
2022-09-20T03:53:58.214Z,3.40
2022-09-20T03:56:49.652Z,3.22
2022-09-20T03:59:36.096Z,3.58
2022-09-20T04:02:03.109Z,3.20
2022-09-20T04:04:48.927Z,2.92
2022-09-20T04:07:34.768Z,2.70
2022-09-20T04:10:03.759Z,3.25
2022-09-20T04:12:33.830Z,3.20
2022-09-20T04:15:13.117Z,3.33
2022-09-20T04:18:00.580Z,3.38
2022-09-20T04:20:27.604Z,3.63
2022-09-20T04:22:58.639Z,3.90
2022-09-20T04:25:31.497Z,3.20
2022-09-20T04:28:06.068Z,2.72
2022-09-20T04:30:37.672Z,3.53
2022-09-20T04:33:22.538Z,3.13
2022-09-20T04:36:20.396Z,3.60
2022-09-20T04:38:52.064Z,3.83
2022-09-20T04:41:21.932Z,3.53
2022-09-20T04:44:08.913Z,3.38
2022-09-20T04:46:42.317Z,4.60
2022-09-20T04:49:21.422Z,3.40
2022-09-20T04:51:58.154Z,3.90
2022-09-20T04:54:44.533Z,4.22
2022-09-20T04:57:32.777Z,3.85
2022-09-20T05:00:08.491Z,3.33
2022-09-20T05:02:41.981Z,3.20
2022-09-20T05:05:11.853Z,3.83
2022-09-20T05:07:57.152Z,3.50
2022-09-20T05:10:40.413Z,3.78
2022-09-20T05:13:07.407Z,3.90
2022-09-20T05:15:53.224Z,3.97
2022-09-20T05:18:23.497Z,3.78
2022-09-20T05:20:56.726Z,3.60
2022-09-20T05:23:23.990Z,3.60
2022-09-20T05:25:52.062Z,3.88
2022-09-20T05:28:37.939Z,3.53
2022-09-20T05:31:04.997Z,3.60
2022-09-20T05:33:50.529Z,4.25
2022-09-20T05:36:29.156Z,3.60
2022-09-20T05:39:21.458Z,3.65
2022-09-20T05:42:03.062Z,3.80
2022-09-20T05:44:48.965Z,4.03
2022-09-20T05:47:22.219Z,3.60
2022-09-20T05:50:00.324Z,3.65
2022-09-20T05:52:43.009Z,4.13
2022-09-20T05:55:28.871Z,3.95
2022-09-20T05:58:14.725Z,3.33
2022-09-20T06:00:59.208Z,3.45
2022-09-20T06:03:33.708Z,3.42
2022-09-20T06:06:21.575Z,3.45
2022-09-20T06:09:00.884Z,4.00
2022-09-20T06:11:36.688Z,3.55
2022-09-20T06:14:27.684Z,3.75
2022-09-20T06:17:00.352Z,3.88
2022-09-20T06:19:34.108Z,3.88
2022-09-20T06:22:03.962Z,3.92
2022-09-20T06:24:53.869Z,3.90
2022-09-20T06:27:24.298Z,3.67
2022-09-20T06:29:58.808Z,4.00
2022-09-20T06:32:27.098Z,3.50
2022-09-20T06:34:55.113Z,3.90
2022-09-20T06:37:40.884Z,3.33
2022-09-20T06:40:42.894Z,3.63
2022-09-20T06:43:14.377Z,3.38
2022-09-20T06:45:42.766Z,2.55
2022-09-20T06:48:11.545Z,2.83
2022-09-20T06:50:38.639Z,3.35
2022-09-20T06:53:06.431Z,3.72
2022-09-20T06:55:37.400Z,3.83
2022-09-20T06:58:04.561Z,3.55
2022-09-20T07:00:31.578Z,3.50
2022-09-20T07:02:58.580Z,4.05
2022-09-20T07:05:26.508Z,3.90
2022-09-20T07:08:00.113Z,4.22
2022-09-20T07:10:30.751Z,4.00
2022-09-20T07:12:59.471Z,3.70
2022-09-20T07:15:30.113Z,4.25
2022-09-20T07:17:57.277Z,4.10
2022-09-20T07:20:24.353Z,3.80
2022-09-20T07:22:51.513Z,3.33
2022-09-20T07:25:18.527Z,3.00
2022-09-20T07:27:46.396Z,3.53
2022-09-20T07:30:14.780Z,3.60
2022-09-20T07:32:41.898Z,3.33
2022-09-20T07:35:10.174Z,4.40
2022-09-20T07:37:37.504Z,3.30
2022-09-20T07:40:05.683Z,4.28
2022-09-20T07:42:32.928Z,3.40
2022-09-20T07:45:02.677Z,3.67
2022-09-20T07:47:35.264Z,3.40
2022-09-20T07:50:02.771Z,3.53
2022-09-20T07:52:29.848Z,3.47
2022-09-20T07:54:56.943Z,3.55
2022-09-20T07:57:24.122Z,4.50
2022-09-20T07:59:51.186Z,3.08
2022-09-20T08:02:18.334Z,3.75
2022-09-20T08:04:45.416Z,3.92
2022-09-20T08:07:12.641Z,3.78
2022-09-20T08:09:39.680Z,3.33
2022-09-20T08:14:55.590Z,3.42
2022-09-20T08:17:22.658Z,3.05
2022-09-20T08:19:52.815Z,2.75
2022-09-20T08:22:20.207Z,2.70
2022-09-20T08:24:47.218Z,2.60
2022-09-20T08:27:14.234Z,2.80
2022-09-20T08:29:41.707Z,2.67
2022-09-20T08:32:08.976Z,2.50
2022-09-20T08:34:35.944Z,3.30
2022-09-20T08:37:02.967Z,3.28
2022-09-20T08:42:42.021Z,2.92
2022-09-20T08:45:33.841Z,2.97
2022-09-20T08:48:05.438Z,1.67
2022-09-20T08:50:34.143Z,2.00
2022-09-20T08:53:04.803Z,1.30
2022-09-20T08:55:39.945Z,1.63
2022-09-20T08:58:10.689Z,2.60
2022-09-20T09:00:38.539Z,2.08
2022-09-20T09:03:07.187Z,1.88
2022-09-20T09:05:35.645Z,1.98
2022-09-20T09:08:05.099Z,1.20
2022-09-20T09:10:42.555Z,1.50
2022-09-20T09:13:15.354Z,1.60
2022-09-20T09:15:44.024Z,1.00
2022-09-20T09:18:12.202Z,1.17
2022-09-20T09:20:46.722Z,1.05
2022-09-20T09:23:37.712Z,1.35
2022-09-20T09:26:05.892Z,1.17
2022-09-20T09:28:36.801Z,1.13
2022-09-20T09:31:22.825Z,1.60
2022-09-20T09:33:49.948Z,1.98
2022-09-20T09:36:22.625Z,1.33
2022-09-20T09:38:49.694Z,1.73
2022-09-20T09:41:26.267Z,1.70
2022-09-20T09:44:09.531Z,1.63
2022-09-20T09:46:37.861Z,1.65
2022-09-20T09:49:11.126Z,1.70
2022-09-20T09:51:42.301Z,1.67
2022-09-20T09:54:17.687Z,1.23
2022-09-20T09:57:00.723Z,1.30
2022-09-20T09:59:27.750Z,1.65
2022-09-20T10:02:13.788Z,1.38
2022-09-20T10:04:48.809Z,1.33
2022-09-20T10:07:39.477Z,1.23
2022-09-20T10:10:24.838Z,1.73
2022-09-20T10:13:01.627Z,1.90
2022-09-20T10:15:38.437Z,1.45
2022-09-20T10:18:12.300Z,1.20
2022-09-20T10:20:50.056Z,1.00
2022-09-20T10:23:51.377Z,1.33
2022-09-20T10:26:18.408Z,1.30
2022-09-20T10:28:51.425Z,0.95
2022-09-20T10:31:27.818Z,1.30
2022-09-20T10:34:09.993Z,2.33
2022-09-20T10:36:37.192Z,1.50
2022-09-20T10:39:06.420Z,1.25
2022-09-20T10:41:58.186Z,1.10
2022-09-20T10:44:38.076Z,1.00
2022-09-20T10:47:10.107Z,0.75
2022-09-20T10:49:42.642Z,1.10
2022-09-20T10:52:28.905Z,1.17
2022-09-20T10:55:05.128Z,1.50
2022-09-20T10:57:38.253Z,1.40
2022-09-20T11:00:07.097Z,1.30
2022-09-20T11:02:34.245Z,0.90
2022-09-20T11:05:04.262Z,1.25
2022-09-20T11:07:54.409Z,1.40
2022-09-20T11:10:24.193Z,2.00
2022-09-20T11:12:59.447Z,1.33
2022-09-20T11:15:32.419Z,1.30
2022-09-20T11:18:05.617Z,1.67
2022-09-20T11:20:45.068Z,1.65
2022-09-20T11:23:19.228Z,1.40
2022-09-20T11:25:51.633Z,1.90
2022-09-20T11:28:31.393Z,1.52
2022-09-20T11:31:04.537Z,2.05
2022-09-20T11:33:52.258Z,2.22
2022-09-20T11:36:39.510Z,1.60
2022-09-20T11:39:17.800Z,1.90
2022-09-20T11:41:45.368Z,1.70
2022-09-20T11:44:14.050Z,1.40
2022-09-20T11:46:47.801Z,1.30
2022-09-20T11:49:17.636Z,1.50
2022-09-20T11:51:50.919Z,1.13
2022-09-20T11:54:33.156Z,1.40
2022-09-20T11:57:00.580Z,1.02
2022-09-20T11:59:57.037Z,1.35
2022-09-20T12:02:33.521Z,1.30
2022-09-20T12:05:01.916Z,1.05
2022-09-20T12:07:47.071Z,0.90
2022-09-20T12:10:25.207Z,0.85
2022-09-20T12:13:00.028Z,1.15
2022-09-20T12:15:33.305Z,1.10
2022-09-20T12:18:00.328Z,0.80
2022-09-20T12:20:51.355Z,1.05
2022-09-20T12:23:38.123Z,1.27
2022-09-20T12:26:10.948Z,1.17
2022-09-20T12:28:39.432Z,0.70
2022-09-20T12:31:33.723Z,0.70
2022-09-20T12:34:15.899Z,1.10
2022-09-20T12:36:44.274Z,1.02
2022-09-20T12:39:11.317Z,0.90
2022-09-20T12:42:04.534Z,0.77
2022-09-20T12:44:49.907Z,0.98
2022-09-20T12:47:21.491Z,0.85
2022-09-20T12:50:07.196Z,0.80
2022-09-20T12:53:04.034Z,0.77
2022-09-20T12:55:34.330Z,0.85
2022-09-20T12:58:03.084Z,1.38
2022-09-20T13:00:36.146Z,1.30
2022-09-20T13:03:23.092Z,1.35
2022-09-20T13:05:52.586Z,1.08
2022-09-20T13:08:30.007Z,1.15
2022-09-20T13:11:19.359Z,0.90
2022-09-20T13:13:57.066Z,1.00
2022-09-20T13:16:42.712Z,1.08
2022-09-20T13:19:18.177Z,0.90
2022-09-20T13:22:05.212Z,1.00
2022-09-20T13:24:39.629Z,0.85
2022-09-20T13:27:19.421Z,0.70
2022-09-20T13:29:46.646Z,0.95
2022-09-20T13:32:17.164Z,0.82
2022-09-20T13:34:45.444Z,0.68
2022-09-20T13:37:21.776Z,0.73
2022-09-20T13:39:53.587Z,1.48
2022-09-20T13:42:21.120Z,1.48
2022-09-20T13:44:48.712Z,0.90
2022-09-20T13:47:32.108Z,2.25
2022-09-20T13:50:02.532Z,1.63
2022-09-20T13:52:31.146Z,0.75
2022-09-20T13:54:58.199Z,1.17
2022-09-20T13:57:29.152Z,1.08
2022-09-20T13:59:57.863Z,0.93
2022-09-20T14:02:27.578Z,0.75
2022-09-20T14:04:56.039Z,1.30
2022-09-20T14:07:25.861Z,1.20
2022-09-20T14:09:54.048Z,1.08
2022-09-20T14:12:22.147Z,0.93
2022-09-20T14:14:49.833Z,0.77
2022-09-20T14:17:20.990Z,0.70
2022-09-20T14:19:49.549Z,1.00
2022-09-20T14:22:19.121Z,0.70
2022-09-20T14:24:59.413Z,1.00
2022-09-20T14:27:26.502Z,0.98
2022-09-20T14:29:54.343Z,0.70
2022-09-20T14:32:21.601Z,0.65
2022-09-20T14:35:01.019Z,0.90
2022-09-20T14:37:32.497Z,0.85
2022-09-20T14:40:04.135Z,1.25
2022-09-20T14:42:46.304Z,1.48
2022-09-20T14:45:46.121Z,0.70
2022-09-20T14:48:15.911Z,0.57
2022-09-20T14:50:44.407Z,1.20
2022-09-20T14:53:11.365Z,0.98
2022-09-20T14:55:57.111Z,0.70
2022-09-20T14:58:26.171Z,1.05
2022-09-20T15:00:54.956Z,0.90
2022-09-20T15:03:26.072Z,1.60
2022-09-20T15:05:53.074Z,0.90
2022-09-20T15:08:20.278Z,0.80
2022-09-20T15:10:47.872Z,0.75
2022-09-20T15:13:15.161Z,0.80
2022-09-20T15:15:44.230Z,0.70
2022-09-20T15:18:20.984Z,0.70
2022-09-20T15:20:49.101Z,0.93
2022-09-20T15:23:16.133Z,0.85
2022-09-20T15:25:43.248Z,0.90
2022-09-20T15:28:15.121Z,0.90
2022-09-20T15:30:41.789Z,0.73
2022-09-20T15:33:10.026Z,1.15
2022-09-20T15:35:36.665Z,1.00
2022-09-20T15:38:03.663Z,1.55
2022-09-20T15:40:30.505Z,0.90
2022-09-20T15:42:59.383Z,1.10
2022-09-20T15:45:28.042Z,0.80
2022-09-20T15:47:55.412Z,0.88
2022-09-20T15:50:25.682Z,1.10
2022-09-20T15:52:54.850Z,0.70
2022-09-20T15:55:23.467Z,0.98
2022-09-20T15:57:50.383Z,1.10
2022-09-20T16:00:20.004Z,1.13
2022-09-20T16:02:49.928Z,1.45
2022-09-20T16:05:16.634Z,1.35
2022-09-20T16:07:43.262Z,1.00
2022-09-20T16:10:09.996Z,1.00
2022-09-20T16:12:36.605Z,1.30
2022-09-20T16:15:03.347Z,1.65
2022-09-20T16:17:48.668Z,1.52
2022-09-20T16:20:15.345Z,1.23
2022-09-20T16:22:41.985Z,1.00
2022-09-20T16:25:08.806Z,1.13
2022-09-20T16:27:35.422Z,1.10
2022-09-20T16:30:02.865Z,1.33
2022-09-20T16:32:29.464Z,2.40
2022-09-20T16:34:57.820Z,1.50
2022-09-20T16:37:24.873Z,2.30
2022-09-20T16:39:51.494Z,1.40
2022-09-20T16:42:18.475Z,1.42
2022-09-20T16:44:45.259Z,1.95
2022-09-20T16:47:18.074Z,1.10
2022-09-20T16:49:47.259Z,1.40
2022-09-20T16:52:14.168Z,1.65
2022-09-20T16:54:40.802Z,1.20
2022-09-20T16:57:07.840Z,1.58
2022-09-20T16:59:34.460Z,1.40
2022-09-20T17:02:01.166Z,1.08
2022-09-20T17:04:27.963Z,1.40
2022-09-20T17:06:54.689Z,2.30
2022-09-20T17:09:21.588Z,2.20
2022-09-20T17:11:50.304Z,1.65
2022-09-20T17:14:19.585Z,2.25
2022-09-20T17:16:50.226Z,2.50
2022-09-20T17:19:19.025Z,2.90
2022-09-20T17:21:51.195Z,2.65
2022-09-20T17:24:20.544Z,2.15
2022-09-20T17:26:48.932Z,1.50
2022-09-20T17:29:17.368Z,1.80
2022-09-20T17:31:51.585Z,1.65
2022-09-20T17:34:21.801Z,1.65
2022-09-20T17:36:50.232Z,1.85
2022-09-20T17:39:17.090Z,1.80
2022-09-20T17:41:46.751Z,1.75
2022-09-20T17:44:14.504Z,1.70
2022-09-20T17:46:43.426Z,1.88
2022-09-20T17:49:14.968Z,1.70
2022-09-20T17:51:44.256Z,1.70
2022-09-20T17:54:15.281Z,1.80
2022-09-20T17:56:43.632Z,2.40
2022-09-20T17:59:11.208Z,7.00
2022-09-20T18:01:38.683Z,10.23
2022-09-20T18:04:06.858Z,2.25
2022-09-20T18:06:40.865Z,2.33
2022-09-20T18:09:10.234Z,2.45
2022-09-20T18:11:43.988Z,1.80
2022-09-20T18:14:10.921Z,1.95
2022-09-20T18:16:38.667Z,2.00
2022-09-20T18:19:08.097Z,1.88
2022-09-20T18:21:36.420Z,1.58
2022-09-20T18:24:06.251Z,1.17
2022-09-20T18:26:33.562Z,1.20
2022-09-20T18:29:05.170Z,0.85
2022-09-20T18:31:43.166Z,1.30
2022-09-20T18:34:17.975Z,1.90
2022-09-20T18:36:47.770Z,2.30
2022-09-20T18:39:14.440Z,1.65
2022-09-20T18:41:41.085Z,1.38
2022-09-20T18:44:09.449Z,1.20
2022-09-20T18:46:38.143Z,1.60
2022-09-20T18:49:08.227Z,1.50
2022-09-20T18:51:39.447Z,1.80
2022-09-20T18:54:09.804Z,2.20
2022-09-20T18:56:41.264Z,2.00
2022-09-20T18:59:17.117Z,2.90
2022-09-20T19:02:28.135Z,2.95
2022-09-20T19:05:12.131Z,3.03
2022-09-20T19:08:10.949Z,2.55
2022-09-20T19:10:48.489Z,2.50
2022-09-20T19:13:41.044Z,2.38
2022-09-20T19:16:20.409Z,2.53
2022-09-20T19:19:02.571Z,1.67
2022-09-20T19:21:57.005Z,1.70
2022-09-20T19:24:45.808Z,2.28
2022-09-20T19:27:13.985Z,1.80
2022-09-20T19:29:41.335Z,7.03
2022-09-20T19:32:17.197Z,3.05
2022-09-20T19:34:45.053Z,2.00
2022-09-20T19:37:24.044Z,2.10
2022-09-20T19:40:11.654Z,2.40
2022-09-20T19:43:08.927Z,2.90
2022-09-20T19:45:35.855Z,2.90
2022-09-20T19:48:14.286Z,2.00
2022-09-20T19:50:46.342Z,1.50
2022-09-20T19:53:17.926Z,2.47
2022-09-20T19:55:48.031Z,1.70
2022-09-20T19:58:15.576Z,1.40
2022-09-20T20:00:46.837Z,2.10
2022-09-20T20:03:14.983Z,2.15
2022-09-20T20:05:50.173Z,2.10
2022-09-20T20:08:23.684Z,2.30
2022-09-20T20:11:02.168Z,2.35
2022-09-20T20:13:53.381Z,2.00
2022-09-20T20:16:28.784Z,1.65
2022-09-20T20:19:12.971Z,2.00
2022-09-20T20:21:47.421Z,1.80
2022-09-20T20:24:37.466Z,1.40
2022-09-20T20:27:04.309Z,1.50
2022-09-20T20:29:30.892Z,1.45
2022-09-20T20:31:57.566Z,1.52
2022-09-20T20:34:26.457Z,1.63
2022-09-20T20:37:00.742Z,2.20
2022-09-20T20:39:29.501Z,1.80
2022-09-20T20:42:01.790Z,1.60
2022-09-20T20:44:38.105Z,1.90
2022-09-20T20:47:06.599Z,1.98
2022-09-20T20:49:33.331Z,2.20
2022-09-20T20:52:04.516Z,1.80
2022-09-20T20:54:32.122Z,1.83
2022-09-20T20:56:59.163Z,2.03
2022-09-20T20:59:26.074Z,2.10
2022-09-20T21:01:52.775Z,2.05
2022-09-20T21:04:21.335Z,1.98
2022-09-20T21:06:47.927Z,1.98
2022-09-20T21:09:14.508Z,2.00
2022-09-20T21:11:43.983Z,2.08
2022-09-20T21:14:13.542Z,2.38
2022-09-20T21:16:42.942Z,3.75
2022-09-20T21:19:12.981Z,2.53
2022-09-20T21:21:42.539Z,2.60
2022-09-20T21:24:11.438Z,2.30
2022-09-20T21:26:39.170Z,2.00
2022-09-20T21:29:11.638Z,2.95
2022-09-20T21:31:40.521Z,1.70
2022-09-20T21:34:08.438Z,1.50
2022-09-20T21:36:36.727Z,1.70
2022-09-20T21:39:04.160Z,1.55
2022-09-20T21:41:32.899Z,2.13
2022-09-20T21:44:00.914Z,2.90
2022-09-20T21:46:33.932Z,2.30
2022-09-20T21:49:06.139Z,2.15
2022-09-20T21:51:33.528Z,3.28
2022-09-20T21:54:02.882Z,2.90
2022-09-20T21:56:41.150Z,3.22
2022-09-20T21:59:08.082Z,2.75
2022-09-20T22:01:40.121Z,2.20
2022-09-20T22:04:09.827Z,2.63
2022-09-20T22:06:42.085Z,2.60
2022-09-20T22:09:14.434Z,2.65
2022-09-20T22:11:43.511Z,1.95
2022-09-20T22:14:11.826Z,2.08
2022-09-20T22:16:40.833Z,2.05
2022-09-20T22:19:09.642Z,2.30
2022-09-20T22:21:44.637Z,2.22
2022-09-20T22:24:13.265Z,2.00
2022-09-20T22:26:43.012Z,2.08
2022-09-20T22:29:10.394Z,2.15
2022-09-20T22:31:45.061Z,1.83
2022-09-20T22:34:15.471Z,2.15
2022-09-20T22:36:42.720Z,2.90
2022-09-20T22:39:10.911Z,2.83
2022-09-20T22:41:39.115Z,2.97
2022-09-20T22:44:06.114Z,2.70
2022-09-20T22:46:33.810Z,2.95
2022-09-20T22:49:00.561Z,2.65
2022-09-20T22:51:30.705Z,2.70
2022-09-20T22:53:57.462Z,2.10
2022-09-20T22:56:28.061Z,2.00
2022-09-20T22:58:57.426Z,1.75
2022-09-20T23:01:27.360Z,2.00
2022-09-20T23:04:03.098Z,2.38
2022-09-20T23:06:54.523Z,2.00
2022-09-20T23:09:23.094Z,1.98
2022-09-20T23:11:50.166Z,1.80
2022-09-20T23:14:21.183Z,1.75
2022-09-20T23:16:49.322Z,1.83
2022-09-20T23:19:17.068Z,1.65
2022-09-20T23:21:44.615Z,2.33
2022-09-20T23:24:13.155Z,1.88
2022-09-20T23:26:41.504Z,2.30
2022-09-20T23:29:11.108Z,2.28
2022-09-20T23:31:39.259Z,2.22
2022-09-20T23:34:07.308Z,2.50
2022-09-20T23:36:37.072Z,2.90
2022-09-20T23:39:04.340Z,2.72
2022-09-20T23:41:31.129Z,2.53
2022-09-20T23:43:57.959Z,3.30
2022-09-20T23:46:26.588Z,2.28
2022-09-20T23:48:53.554Z,3.22
2022-09-20T23:51:23.536Z,3.00
2022-09-20T23:53:51.333Z,3.00
2022-09-20T23:56:19.005Z,2.72
2022-09-20T23:58:45.911Z,3.30
